createdAt,value
2022-09-26T00:01:44.326Z,5.20
2022-09-26T00:04:22.727Z,4.23
2022-09-26T00:06:57.071Z,4.50
2022-09-26T00:09:28.160Z,4.80
2022-09-26T00:11:56.434Z,3.77
2022-09-26T00:14:27.350Z,4.10
2022-09-26T00:16:55.911Z,4.40
2022-09-26T00:19:25.453Z,4.00
2022-09-26T00:21:55.437Z,4.47
2022-09-26T00:24:23.769Z,4.97
2022-09-26T00:26:52.687Z,5.43
2022-09-26T00:29:20.974Z,5.27
2022-09-26T00:31:49.370Z,8.20
2022-09-26T00:34:20.442Z,9.57
2022-09-26T00:36:48.778Z,8.20
2022-09-26T00:39:19.320Z,7.67
2022-09-26T00:41:47.692Z,9.17
2022-09-26T00:44:43.621Z,6.83
2022-09-26T00:47:29.240Z,8.63
2022-09-26T00:50:01.998Z,10.37
2022-09-26T00:52:34.849Z,6.03
2022-09-26T00:55:07.357Z,7.27
2022-09-26T00:57:41.868Z,6.20
2022-09-26T01:00:15.146Z,6.27
2022-09-26T01:02:45.385Z,5.43
2022-09-26T01:05:17.426Z,5.20
2022-09-26T01:07:46.569Z,4.73
2022-09-26T01:10:17.808Z,4.83
2022-09-26T01:12:46.043Z,5.50
2022-09-26T01:15:14.494Z,5.80
2022-09-26T01:17:45.837Z,4.37
2022-09-26T01:20:26.557Z,3.93
2022-09-26T01:23:43.688Z,4.07
2022-09-26T01:26:50.442Z,3.80
2022-09-26T01:29:37.085Z,5.33
2022-09-26T01:32:32.915Z,4.87
2022-09-26T01:35:08.715Z,4.90
2022-09-26T01:37:46.865Z,6.87
2022-09-26T01:40:23.217Z,4.90
2022-09-26T01:43:06.040Z,4.70
2022-09-26T01:45:44.063Z,5.93
2022-09-26T01:48:18.571Z,5.53
2022-09-26T01:50:52.224Z,4.20
2022-09-26T01:53:25.633Z,5.47
2022-09-26T01:55:58.111Z,3.93
2022-09-26T01:58:30.816Z,3.83
2022-09-26T02:01:03.498Z,4.20
2022-09-26T02:03:38.157Z,5.23
2022-09-26T02:06:11.712Z,3.87
2022-09-26T02:08:43.402Z,4.63
2022-09-26T02:11:17.415Z,4.67
2022-09-26T02:13:52.082Z,4.70
2022-09-26T02:16:27.353Z,4.37
2022-09-26T02:19:00.866Z,4.50
2022-09-26T02:21:29.287Z,3.83
2022-09-26T02:23:57.583Z,4.60
2022-09-26T02:26:26.413Z,4.23
2022-09-26T02:28:54.572Z,4.33
2022-09-26T02:31:27.517Z,5.87
2022-09-26T02:33:58.928Z,4.13
2022-09-26T02:36:27.361Z,7.10
2022-09-26T02:38:55.465Z,5.93
2022-09-26T02:41:30.429Z,3.97
2022-09-26T02:44:22.478Z,4.00
2022-09-26T02:47:19.306Z,5.00
2022-09-26T02:50:21.862Z,3.20
2022-09-26T02:53:01.352Z,3.60
2022-09-26T02:55:41.360Z,3.87
2022-09-26T02:58:19.273Z,3.10
2022-09-26T03:01:00.989Z,2.67
2022-09-26T03:03:35.346Z,3.00
2022-09-26T03:06:10.750Z,3.40
2022-09-26T03:08:44.301Z,3.07
2022-09-26T03:11:17.096Z,3.10
2022-09-26T03:13:47.795Z,3.47
2022-09-26T03:16:16.577Z,3.63
2022-09-26T03:18:55.223Z,3.40
2022-09-26T03:21:25.687Z,3.87
2022-09-26T03:23:53.796Z,2.87
2022-09-26T03:26:24.864Z,5.10
2022-09-26T03:28:53.227Z,3.60
2022-09-26T03:31:22.527Z,3.70
2022-09-26T03:33:51.127Z,3.47
2022-09-26T03:36:19.873Z,5.00
2022-09-26T03:38:49.988Z,4.10
2022-09-26T03:41:18.687Z,4.40
2022-09-26T03:43:47.030Z,4.77
2022-09-26T03:46:16.030Z,6.83
2022-09-26T03:48:44.804Z,7.20
2022-09-26T03:51:14.958Z,5.87
2022-09-26T03:53:45.596Z,5.83
2022-09-26T03:56:17.151Z,20.27
2022-09-26T03:58:47.000Z,16.20
2022-09-26T04:01:17.637Z,21.87
2022-09-26T04:03:50.515Z,16.03
2022-09-26T04:06:21.342Z,7.40
2022-09-26T04:08:51.931Z,7.20
2022-09-26T04:11:24.812Z,6.90
2022-09-26T04:13:54.221Z,10.77
2022-09-26T04:16:24.295Z,9.77
2022-09-26T04:18:58.064Z,9.67
2022-09-26T04:21:27.510Z,8.97
2022-09-26T04:23:56.789Z,8.20
2022-09-26T04:26:26.617Z,9.33
2022-09-26T04:28:57.315Z,8.83
2022-09-26T04:31:27.868Z,10.47
2022-09-26T04:33:56.453Z,9.37
2022-09-26T04:36:24.945Z,10.47
2022-09-26T04:38:53.189Z,11.67
2022-09-26T04:41:23.087Z,11.37
2022-09-26T04:43:55.644Z,13.03
2022-09-26T04:46:30.180Z,13.27
2022-09-26T04:49:01.804Z,13.73
2022-09-26T04:51:31.693Z,16.90
2022-09-26T04:54:00.413Z,13.43
2022-09-26T04:56:30.746Z,14.27
2022-09-26T04:59:01.189Z,12.30
2022-09-26T05:01:29.874Z,11.73
2022-09-26T05:03:58.559Z,12.47
2022-09-26T05:06:27.161Z,13.83
2022-09-26T05:08:55.402Z,14.37
2022-09-26T05:11:24.715Z,15.57
2022-09-26T05:13:53.923Z,16.27
2022-09-26T05:16:24.231Z,18.93
2022-09-26T05:18:52.958Z,14.83
2022-09-26T05:21:21.529Z,17.53
2022-09-26T05:24:07.359Z,17.70
2022-09-26T05:26:43.280Z,16.57
2022-09-26T05:29:12.339Z,19.23
2022-09-26T05:31:43.741Z,18.57
2022-09-26T05:34:19.924Z,21.63
2022-09-26T05:36:49.618Z,20.77
2022-09-26T05:39:31.686Z,19.57
2022-09-26T05:42:00.851Z,19.20
2022-09-26T05:44:31.032Z,31.30
2022-09-26T05:47:01.494Z,20.23
2022-09-26T05:49:29.870Z,18.80
2022-09-26T05:51:58.633Z,19.07
2022-09-26T05:54:26.943Z,19.17
2022-09-26T05:56:56.251Z,19.37
2022-09-26T05:59:26.269Z,19.43
2022-09-26T06:01:55.092Z,18.27
2022-09-26T06:04:24.872Z,18.83
2022-09-26T06:06:53.004Z,19.03
2022-09-26T06:09:21.304Z,18.97
2022-09-26T06:11:50.252Z,20.10
2022-09-26T06:14:18.689Z,19.63
2022-09-26T06:16:47.214Z,19.47
2022-09-26T06:19:18.443Z,21.90
2022-09-26T06:21:52.241Z,20.37
2022-09-26T06:24:22.926Z,20.53
2022-09-26T06:26:51.383Z,21.43
2022-09-26T06:29:20.242Z,20.53
2022-09-26T06:31:48.699Z,22.00
2022-09-26T06:34:16.911Z,20.83
2022-09-26T06:36:47.144Z,20.83
2022-09-26T06:39:18.015Z,20.30
2022-09-26T06:41:46.224Z,21.87
2022-09-26T06:44:14.730Z,20.83
2022-09-26T06:46:43.711Z,21.60
2022-09-26T06:49:12.226Z,21.77
2022-09-26T06:51:41.386Z,22.30
2022-09-26T06:54:10.425Z,21.03
2022-09-26T06:56:40.484Z,19.57
2022-09-26T06:59:08.930Z,21.30
2022-09-26T07:01:37.421Z,21.80
2022-09-26T07:04:06.282Z,21.50
2022-09-26T07:06:35.138Z,21.47
2022-09-26T07:09:07.457Z,21.90
2022-09-26T07:12:13.081Z,21.73
2022-09-26T07:14:34.862Z,20.20
2022-09-26T07:17:03.277Z,20.87
2022-09-26T07:19:31.845Z,19.93
2022-09-26T07:22:00.257Z,20.77
2022-09-26T07:24:28.308Z,20.17
2022-09-26T07:26:58.161Z,19.63
2022-09-26T07:29:27.224Z,20.43
2022-09-26T07:31:55.655Z,20.50
2022-09-26T07:34:25.266Z,18.03
2022-09-26T07:36:54.375Z,19.37
2022-09-26T07:39:23.195Z,18.40
2022-09-26T07:41:51.752Z,18.77
2022-09-26T07:47:29.607Z,18.27
2022-09-26T07:50:15.257Z,17.20
2022-09-26T07:52:44.802Z,14.87
2022-09-26T07:55:17.030Z,14.87
2022-09-26T07:57:48.613Z,14.20
2022-09-26T08:00:23.623Z,14.77
2022-09-26T08:02:53.060Z,14.40
2022-09-26T08:05:24.528Z,14.40
2022-09-26T08:07:53.106Z,15.10
2022-09-26T08:10:24.170Z,13.63
2022-09-26T08:12:52.263Z,15.87
2022-09-26T08:15:22.482Z,15.40
2022-09-26T08:17:52.100Z,15.13
2022-09-26T08:20:20.783Z,12.47
2022-09-26T08:22:49.644Z,11.40
2022-09-26T08:25:18.358Z,11.27
2022-09-26T08:27:46.799Z,10.43
2022-09-26T08:30:15.254Z,9.47
2022-09-26T08:32:45.268Z,9.77
2022-09-26T08:35:15.143Z,8.67
2022-09-26T08:37:43.241Z,8.17
2022-09-26T08:40:12.669Z,7.43
2022-09-26T08:42:53.751Z,6.93
2022-09-26T08:45:57.786Z,6.77
2022-09-26T08:48:43.113Z,9.73
2022-09-26T08:51:28.274Z,9.30
2022-09-26T08:54:03.676Z,10.10
2022-09-26T08:56:36.445Z,10.00
2022-09-26T08:59:13.544Z,9.17
2022-09-26T09:01:46.910Z,8.60
2022-09-26T09:04:22.276Z,8.50
2022-09-26T09:07:00.260Z,8.53
2022-09-26T09:09:28.609Z,8.50
2022-09-26T09:12:09.977Z,7.77
2022-09-26T09:15:20.404Z,8.20
2022-09-26T09:17:56.544Z,9.83
2022-09-26T09:20:40.266Z,9.37
2022-09-26T09:23:23.842Z,9.17
2022-09-26T09:29:10.360Z,7.87
2022-09-26T09:31:42.294Z,4.27
2022-09-26T09:34:16.892Z,1.33
2022-09-26T09:36:49.662Z,0.90
2022-09-26T09:39:28.159Z,1.47
2022-09-26T09:42:01.512Z,1.00
2022-09-26T09:44:45.773Z,1.03
2022-09-26T09:47:16.502Z,1.10
2022-09-26T09:49:46.043Z,1.17
2022-09-26T09:52:42.666Z,1.00
2022-09-26T09:55:32.299Z,0.60
2022-09-26T09:58:20.136Z,3.90
2022-09-26T10:01:00.882Z,3.63
2022-09-26T10:03:37.959Z,4.40
2022-09-26T10:06:44.188Z,2.10
2022-09-26T10:09:38.584Z,1.60
2022-09-26T10:11:52.667Z,0.83
2022-09-26T10:14:31.595Z,0.90
2022-09-26T10:17:21.427Z,0.80
2022-09-26T10:19:51.665Z,0.93
2022-09-26T10:22:26.252Z,0.87
2022-09-26T10:25:04.395Z,1.20
2022-09-26T10:27:39.109Z,0.97
2022-09-26T10:30:26.765Z,0.90
2022-09-26T10:32:59.052Z,1.10
2022-09-26T10:35:29.892Z,1.20
2022-09-26T10:38:03.518Z,0.90
2022-09-26T10:40:48.034Z,0.80
2022-09-26T10:43:30.816Z,1.07
2022-09-26T10:46:10.432Z,1.03
2022-09-26T10:48:49.061Z,1.03
2022-09-26T10:51:29.219Z,1.00
2022-09-26T10:54:05.944Z,0.80
2022-09-26T10:56:45.581Z,1.10
2022-09-26T10:59:17.838Z,1.10
2022-09-26T11:01:51.726Z,0.93
2022-09-26T11:04:38.958Z,0.90
2022-09-26T11:07:10.113Z,0.80
2022-09-26T11:09:39.897Z,0.90
2022-09-26T11:12:27.780Z,1.00
2022-09-26T11:15:00.367Z,0.90
2022-09-26T11:17:48.129Z,1.10
2022-09-26T11:20:36.884Z,1.33
2022-09-26T11:23:19.271Z,0.90
2022-09-26T11:26:00.560Z,0.90
2022-09-26T11:28:40.536Z,0.80
2022-09-26T11:31:19.224Z,0.90
2022-09-26T11:33:47.609Z,1.10
2022-09-26T11:36:47.363Z,1.03
2022-09-26T11:39:34.196Z,1.00
2022-09-26T11:42:16.608Z,1.10
2022-09-26T11:44:58.641Z,1.10
2022-09-26T11:47:56.602Z,1.00
2022-09-26T11:50:39.819Z,1.00
2022-09-26T11:53:33.678Z,2.37
2022-09-26T11:56:22.210Z,3.30
2022-09-26T11:59:02.442Z,2.57
2022-09-26T12:01:48.909Z,1.80
2022-09-26T12:04:56.272Z,32.17
2022-09-26T12:07:33.757Z,4.57
2022-09-26T12:10:19.738Z,2.57
2022-09-26T12:13:01.427Z,1.80
2022-09-26T12:15:39.878Z,2.07
2022-09-26T12:18:21.809Z,1.70
2022-09-26T12:21:11.979Z,2.00
2022-09-26T12:23:48.895Z,2.40
2022-09-26T12:26:22.606Z,2.27
2022-09-26T12:29:22.465Z,2.53
2022-09-26T12:32:04.966Z,2.10
2022-09-26T12:34:57.883Z,1.57
2022-09-26T12:37:45.359Z,3.10
2022-09-26T12:40:33.069Z,1.97
2022-09-26T12:43:21.876Z,1.80
2022-09-26T12:46:06.306Z,2.20
2022-09-26T12:49:02.234Z,1.80
2022-09-26T12:51:43.026Z,4.20
2022-09-26T12:54:46.068Z,1.90
2022-09-26T12:57:27.658Z,1.80
2022-09-26T13:00:12.919Z,1.97
2022-09-26T13:03:15.179Z,1.90
2022-09-26T13:06:13.729Z,1.30
2022-09-26T13:08:57.688Z,1.70
2022-09-26T13:11:35.948Z,1.50
2022-09-26T13:14:27.466Z,1.50
2022-09-26T13:17:10.375Z,1.60
2022-09-26T13:19:43.696Z,1.97
2022-09-26T13:22:27.578Z,1.70
2022-09-26T13:25:04.260Z,2.00
2022-09-26T13:27:38.552Z,1.87
2022-09-26T13:30:14.370Z,1.83
2022-09-26T13:32:53.562Z,1.83
2022-09-26T13:35:23.686Z,2.50
2022-09-26T13:38:09.722Z,2.77
2022-09-26T13:40:45.705Z,2.70
2022-09-26T13:43:26.274Z,3.30
2022-09-26T13:46:02.300Z,2.10
2022-09-26T13:48:50.367Z,2.10
2022-09-26T13:51:24.480Z,2.53
2022-09-26T13:54:00.195Z,2.47
2022-09-26T13:56:47.380Z,2.43
2022-09-26T13:59:36.134Z,2.03
2022-09-26T14:02:23.602Z,2.30
2022-09-26T14:04:53.932Z,2.30
2022-09-26T14:07:44.888Z,2.10
2022-09-26T14:10:22.485Z,1.83
2022-09-26T14:13:06.819Z,1.80
2022-09-26T14:16:01.510Z,1.80
2022-09-26T14:18:45.366Z,1.93
2022-09-26T14:21:24.252Z,2.57
2022-09-26T14:24:32.922Z,1.80
2022-09-26T14:27:28.747Z,1.87
2022-09-26T14:30:08.676Z,1.80
2022-09-26T14:32:39.489Z,1.53
2022-09-26T14:35:20.145Z,1.80
2022-09-26T14:37:51.651Z,1.87
2022-09-26T14:40:30.468Z,2.27
2022-09-26T14:43:04.487Z,2.00
2022-09-26T14:45:48.653Z,2.20
2022-09-26T14:48:36.051Z,2.00
2022-09-26T14:51:06.583Z,2.40
2022-09-26T14:53:41.643Z,2.43
2022-09-26T14:56:15.525Z,2.30
2022-09-26T14:58:52.837Z,2.43
2022-09-26T15:01:27.532Z,2.70
2022-09-26T15:03:59.012Z,2.30
2022-09-26T15:06:29.956Z,2.30
2022-09-26T15:08:59.858Z,2.60
2022-09-26T15:11:34.895Z,2.70
2022-09-26T15:14:15.205Z,2.70
2022-09-26T15:16:51.387Z,2.70
2022-09-26T15:19:24.489Z,2.53
2022-09-26T15:22:00.264Z,2.80
2022-09-26T15:24:30.458Z,2.80
2022-09-26T15:27:01.752Z,2.60
2022-09-26T15:29:30.205Z,3.10
2022-09-26T15:32:01.438Z,2.27
2022-09-26T15:34:35.208Z,2.70
2022-09-26T15:37:11.732Z,2.50
2022-09-26T15:39:42.862Z,2.67
2022-09-26T15:42:47.254Z,2.40
2022-09-26T15:45:30.728Z,2.67
2022-09-26T15:48:04.049Z,2.40
2022-09-26T15:50:41.931Z,2.80
2022-09-26T15:53:24.087Z,2.50
2022-09-26T15:55:57.599Z,2.60
2022-09-26T15:58:37.150Z,2.60
2022-09-26T16:01:06.649Z,2.87
2022-09-26T16:03:48.476Z,2.27
2022-09-26T16:06:25.696Z,1.77
2022-09-26T16:08:57.629Z,2.60
2022-09-26T16:11:28.004Z,2.00
2022-09-26T16:13:58.519Z,2.03
2022-09-26T16:16:32.134Z,1.97
2022-09-26T16:19:05.465Z,2.10
2022-09-26T16:21:37.775Z,2.10
2022-09-26T16:24:31.305Z,2.07
2022-09-26T16:26:59.471Z,1.90
2022-09-26T16:29:31.314Z,2.00
2022-09-26T16:31:59.842Z,2.43
2022-09-26T16:34:30.299Z,2.07
2022-09-26T16:37:00.102Z,2.70
2022-09-26T16:39:30.117Z,2.93
2022-09-26T16:42:03.187Z,3.83
2022-09-26T16:44:36.198Z,5.53
2022-09-26T16:47:06.980Z,6.30
2022-09-26T16:49:45.831Z,4.27
2022-09-26T16:52:31.415Z,3.57
2022-09-26T16:55:02.034Z,3.43
2022-09-26T16:57:32.522Z,2.23
2022-09-26T17:00:16.846Z,2.13
2022-09-26T17:02:45.872Z,2.17
2022-09-26T17:05:20.966Z,2.17
2022-09-26T17:07:50.929Z,1.93
2022-09-26T17:10:23.137Z,2.10
2022-09-26T17:12:53.206Z,2.30
2022-09-26T17:15:28.151Z,2.37
2022-09-26T17:18:01.867Z,2.00
2022-09-26T17:20:33.498Z,2.33
2022-09-26T17:23:21.974Z,2.13
2022-09-26T17:25:56.835Z,2.80
2022-09-26T17:28:31.505Z,5.03
2022-09-26T17:31:06.531Z,7.83
2022-09-26T17:33:39.477Z,4.80
2022-09-26T17:36:16.952Z,2.83
2022-09-26T17:38:45.448Z,2.70
2022-09-26T17:41:13.718Z,2.87
2022-09-26T17:43:42.848Z,3.13
2022-09-26T17:46:15.846Z,2.90
2022-09-26T17:48:45.433Z,2.40
2022-09-26T17:51:15.981Z,2.73
2022-09-26T17:53:50.934Z,2.83
2022-09-26T17:56:20.037Z,2.70
2022-09-26T17:58:49.817Z,3.00
2022-09-26T18:01:24.232Z,3.33
2022-09-26T18:03:55.774Z,3.10
2022-09-26T18:06:31.685Z,4.23
2022-09-26T18:09:07.722Z,2.70
2022-09-26T18:11:38.166Z,3.60
2022-09-26T18:14:08.255Z,2.80
2022-09-26T18:16:36.666Z,2.67
2022-09-26T18:19:07.898Z,2.77
2022-09-26T18:21:38.963Z,2.70
2022-09-26T18:24:18.610Z,3.10
2022-09-26T18:26:51.044Z,3.17
2022-09-26T18:29:27.776Z,3.37
2022-09-26T18:31:56.743Z,3.07
2022-09-26T18:34:26.179Z,2.93
2022-09-26T18:37:00.242Z,3.07
2022-09-26T18:39:29.307Z,3.00
2022-09-26T18:42:03.308Z,2.80
2022-09-26T18:44:35.519Z,2.60
2022-09-26T18:47:06.371Z,2.40
2022-09-26T18:49:37.737Z,2.20
2022-09-26T18:52:12.777Z,2.07
2022-09-26T18:54:44.116Z,1.70
2022-09-26T18:57:30.220Z,2.13
2022-09-26T18:59:59.316Z,2.00
2022-09-26T19:02:42.314Z,2.30
2022-09-26T19:05:16.649Z,2.10
2022-09-26T19:07:46.784Z,2.07
2022-09-26T19:10:17.554Z,2.20
2022-09-26T19:12:46.333Z,1.83
2022-09-26T19:15:15.775Z,1.90
2022-09-26T19:17:44.166Z,2.13
2022-09-26T19:20:12.545Z,2.17
2022-09-26T19:22:40.880Z,1.73
2022-09-26T19:25:12.233Z,1.87
2022-09-26T19:27:47.268Z,2.10
2022-09-26T19:30:17.949Z,1.90
2022-09-26T19:32:49.556Z,2.27
2022-09-26T19:35:24.307Z,2.23
2022-09-26T19:37:52.825Z,2.10
2022-09-26T19:40:23.848Z,2.00
2022-09-26T19:42:52.642Z,1.63
2022-09-26T19:45:22.010Z,2.10
2022-09-26T19:47:54.412Z,2.03
2022-09-26T19:50:24.248Z,1.87
2022-09-26T19:52:54.406Z,1.63
2022-09-26T19:55:25.957Z,2.00
2022-09-26T19:57:55.082Z,1.80
2022-09-26T20:00:23.979Z,1.90
2022-09-26T20:02:54.803Z,1.80
2022-09-26T20:05:26.110Z,1.80
2022-09-26T20:07:55.107Z,1.60
2022-09-26T20:10:28.815Z,2.10
2022-09-26T20:12:57.977Z,1.90
2022-09-26T20:15:29.049Z,1.90
2022-09-26T20:17:58.653Z,1.73
2022-09-26T20:20:28.808Z,2.10
2022-09-26T20:22:57.917Z,2.00
2022-09-26T20:25:31.931Z,2.30
2022-09-26T20:28:00.801Z,2.17
2022-09-26T20:30:47.160Z,2.10
2022-09-26T20:33:15.438Z,2.40
2022-09-26T20:35:47.894Z,2.77
2022-09-26T20:38:25.565Z,2.80
2022-09-26T20:41:00.852Z,3.20
2022-09-26T20:43:34.222Z,3.10
2022-09-26T20:46:06.496Z,3.23
2022-09-26T20:48:37.224Z,2.90
2022-09-26T20:51:08.531Z,3.23
2022-09-26T20:53:38.000Z,3.90
2022-09-26T20:56:14.220Z,3.10
2022-09-26T20:58:42.567Z,3.40
2022-09-26T21:01:16.937Z,3.23
2022-09-26T21:03:52.282Z,3.43
2022-09-26T21:06:23.700Z,3.60
2022-09-26T21:08:52.367Z,3.90
2022-09-26T21:11:26.294Z,3.13
2022-09-26T21:13:56.088Z,3.40
2022-09-26T21:16:24.523Z,3.47
2022-09-26T21:18:55.888Z,3.60
2022-09-26T21:21:27.503Z,3.77
2022-09-26T21:23:59.779Z,3.60
2022-09-26T21:26:31.736Z,3.60
2022-09-26T21:29:00.292Z,3.30
2022-09-26T21:31:32.283Z,3.20
2022-09-26T21:34:02.069Z,3.13
2022-09-26T21:36:35.018Z,3.00
2022-09-26T21:39:04.187Z,3.57
2022-09-26T21:41:35.910Z,3.10
2022-09-26T21:44:14.617Z,3.13
2022-09-26T21:46:46.435Z,3.23
2022-09-26T21:49:15.015Z,3.30
2022-09-26T21:51:45.431Z,2.90
2022-09-26T21:54:20.891Z,2.80
2022-09-26T21:56:53.673Z,3.10
2022-09-26T21:59:24.252Z,3.03
2022-09-26T22:01:52.815Z,2.90
2022-09-26T22:04:22.599Z,3.00
2022-09-26T22:06:53.632Z,3.30
2022-09-26T22:09:22.923Z,3.00
2022-09-26T22:11:53.048Z,3.23
2022-09-26T22:14:21.464Z,2.97
2022-09-26T22:16:50.222Z,3.20
2022-09-26T22:19:19.042Z,3.23
2022-09-26T22:21:47.691Z,3.60
2022-09-26T22:24:19.877Z,3.37
2022-09-26T22:26:53.905Z,3.20
2022-09-26T22:29:22.464Z,3.57
2022-09-26T22:31:56.363Z,3.53
2022-09-26T22:34:26.112Z,3.10
2022-09-26T22:36:54.696Z,3.10
2022-09-26T22:39:28.326Z,3.70
2022-09-26T22:42:04.455Z,3.47
2022-09-26T22:44:33.136Z,3.40
2022-09-26T22:47:02.514Z,2.83
2022-09-26T22:49:33.784Z,3.50
2022-09-26T22:52:03.213Z,3.10
2022-09-26T22:54:31.444Z,2.93
2022-09-26T22:56:59.870Z,3.10
2022-09-26T22:59:30.148Z,3.33
2022-09-26T23:01:59.137Z,3.00
2022-09-26T23:04:47.065Z,3.50
2022-09-26T23:07:16.665Z,3.07
2022-09-26T23:09:47.047Z,2.90
2022-09-26T23:12:16.253Z,3.30
2022-09-26T23:14:46.657Z,2.70
2022-09-26T23:17:15.493Z,3.20
2022-09-26T23:19:45.593Z,3.23
2022-09-26T23:22:18.929Z,2.87
2022-09-26T23:24:47.580Z,2.97
2022-09-26T23:27:16.426Z,2.93
2022-09-26T23:29:46.530Z,3.00
2022-09-26T23:32:14.724Z,3.07
2022-09-26T23:34:46.019Z,2.80
2022-09-26T23:37:14.412Z,3.10
2022-09-26T23:39:43.898Z,3.00
2022-09-26T23:42:12.272Z,3.20
2022-09-26T23:44:40.711Z,3.00
2022-09-26T23:47:10.723Z,3.30
2022-09-26T23:49:39.114Z,4.10
2022-09-26T23:52:07.391Z,3.67
2022-09-26T23:54:36.876Z,3.77
2022-09-26T23:57:05.549Z,4.40
2022-09-26T23:59:36.529Z,3.43
